Flight Track Log - Related Links

Times and Time Zones

All times are in EDT time to prevent confusion due to time zone crossing. See the CTL18 flight status page for this flight to view local times or setup timezone preferences in your user account.

Time Position Orientation Groundspeed Altitude Reporting Facility
EDT Latitude Longitude Course Direction KTS MPH feet Rate Location/Type
Tue 07:08:59 PM 42.6622 -83.4433 24° Northeast 112 129 1,400  Level Cleveland Center
Tue 07:10:00 PM 42.6949 -83.4234 24° Northeast  Level FlightAware Approximate
Tue 07:17:00 PM 42.9299 -83.3996 321° Northwest  Level FlightAware Approximate
Tue 07:18:00 PM 42.9573 -83.4297 321° Northwest  Level FlightAware Approximate
Tue 07:19:00 PM 42.9847 -83.4598 321° Northwest  Level FlightAware Approximate
Tue 07:20:00 PM 43.0121 -83.4900 321° Northwest  Level FlightAware Approximate
Tue 07:21:00 PM 43.0395 -83.5203 321° Northwest  Level FlightAware Approximate
Tue 07:22:00 PM 43.0669 -83.5505 321° Northwest  Level FlightAware Approximate
Tue 07:23:00 PM 43.0942 -83.5808 321° Northwest  Level FlightAware Approximate
Tue 07:24:00 PM 43.1216 -83.6111 321° Northwest  Level FlightAware Approximate
Tue 07:25:00 PM 43.1489 -83.6414 321° Northwest  Level FlightAware Approximate
Tue 07:26:00 PM 43.1763 -83.6718 321° Northwest  Level FlightAware Approximate
Tue 07:27:00 PM 43.2036 -83.7021 321° Northwest  Level FlightAware Approximate
Tue 07:28:00 PM 43.2304 -83.7334 318° Northwest  Level FlightAware Approximate
Tue 07:29:00 PM 43.2567 -83.7655 318° Northwest  Level FlightAware Approximate
Tue 07:30:00 PM 43.2830 -83.7976 318° Northwest  Level FlightAware Approximate
Tue 07:31:00 PM 43.3093 -83.8297 318° Northwest  Level FlightAware Approximate
Tue 07:32:00 PM 43.3355 -83.8619 318° Northwest  Level FlightAware Approximate
Tue 07:33:00 PM 43.3618 -83.8940 318° Northwest  Level FlightAware Approximate
Tue 07:34:00 PM 43.3899 -83.9232 324° Northwest  Level FlightAware Approximate
Tue 07:35:00 PM 43.4184 -83.9516 324° Northwest  Level FlightAware Approximate
Tue 07:36:00 PM 43.4468 -83.9801 324° Northwest  Level FlightAware Approximate
Tue 07:37:00 PM 43.4753 -84.0086 324° Northwest  Level FlightAware Approximate
Tue 07:38:00 PM 43.5026 -84.0386 305° West  Level FlightAware Approximate

Login

Don't have an account? Register now (free) for customized features, flight alerts, and more!